ESOE/ORB METAR and TAF weather

Enter ICAO airport designator
Station Type Date Time Source
ESOE METAR 2018/04/26 14:50 UTC NOAA

ESOE 261450Z 27015KT 9999 SCT043 13/03 Q1001


Station Type Date Time Source
ESOE Decoded METAR 2018/04/26 14:50 UTC NOAA

Orebro Private , Sweden (ESOE) 59-14N 015-03E
Apr 26, 2018 - 10:50 AM EDT / 2018.04.26 1450 UTC
Wind: from the W (270 degrees) at 17 MPH (15 KT):0
Visibility: greater than 7 mile(s):0
Sky conditions: partly cloudy
Temperature: 55 F (13 C)
Dew Point: 37 F (3 C)
Relative Humidity: 50%
Pressure (altimeter): 29.56 in. Hg (1001 hPa)
ob: ESOE 261450Z 27015KT 9999 SCT043 13/03 Q1001
cycle: 15

Station Type Date Time Source
ESOE TAF 2016/03/16 04:36 UTC NOAA

TAF TAF ESOE 160330Z 1604/1624 23005KT 9000 BR NSC PROB40 1604/1607 1200 BR


Example: see airport list